Time;durP1;ratioP1;P1;durP2;ratioP2;P2;SDS_P1;SDS_P2;PMS_P1;PMS_P2;Temp;Humidity;BMP_temperature;BMP_pressure;BME280_temperature;BME280_humidity;BME280_pressure;Samples;Min_cycle;Max_cycle;Signal;HPM_P1;HPM_P2
2022/09/21 00:00:51;;;;;;;8.73;4.22;;;10.80;99.90;;;;;;5156605;27;20039;-75
2022/09/21 00:03:17;;;;;;;13.35;4.60;;;10.80;99.90;;;;;;5169730;27;20042;-75
2022/09/21 00:05:43;;;;;;;11.85;4.60;;;10.80;99.90;;;;;;5158571;27;20038;-75
2022/09/21 00:08:12;;;;;;;9.95;4.13;;;10.80;99.90;;;;;;5172990;27;20117;-75
2022/09/21 00:10:38;;;;;;;11.82;4.53;;;10.80;99.90;;;;;;5174376;27;20125;-75
2022/09/21 00:13:04;;;;;;;9.02;4.43;;;10.80;99.90;;;;;;5155308;27;20046;-75
2022/09/21 00:15:31;;;;;;;9.48;4.43;;;10.70;99.90;;;;;;5155745;27;20088;-75
2022/09/21 00:17:58;;;;;;;12.70;4.50;;;10.70;99.90;;;;;;5158847;27;20054;-75
2022/09/21 00:20:25;;;;;;;12.98;4.80;;;10.70;99.90;;;;;;5156141;27;20110;-75
2022/09/21 00:22:51;;;;;;;11.65;4.95;;;10.60;99.90;;;;;;5164610;27;20439;-75
2022/09/21 00:25:19;;;;;;;9.93;4.50;;;10.60;99.90;;;;;;5139576;27;20070;-74
2022/09/21 00:27:50;;;;;;;8.15;3.90;;;10.60;99.90;;;;;;5175390;27;20091;-75
2022/09/21 00:30:16;;;;;;;10.27;4.47;;;10.70;99.90;;;;;;5142402;27;20053;-75
2022/09/21 00:32:42;;;;;;;11.38;4.20;;;10.60;99.90;;;;;;5163638;27;20070;-75
2022/09/21 00:35:08;;;;;;;13.20;4.15;;;10.60;99.90;;;;;;5168149;27;20560;-75
2022/09/21 00:37:34;;;;;;;9.70;4.10;;;10.60;99.90;;;;;;5176594;27;20098;-75
2022/09/21 00:40:00;;;;;;;12.98;4.55;;;10.60;99.90;;;;;;5160048;27;20038;-75
2022/09/21 00:42:32;;;;;;;11.80;4.70;;;10.60;99.90;;;;;;5160447;27;20049;-75
2022/09/21 00:44:58;;;;;;;11.27;5.40;;;10.50;99.90;;;;;;5174872;27;20504;-75
2022/09/21 00:47:30;;;;;;;11.07;4.95;;;10.50;99.90;;;;;;5176436;27;20121;-75
2022/09/21 00:49:58;;;;;;;12.15;5.18;;;10.50;99.90;;;;;;5170926;27;20043;-75
2022/09/21 00:52:26;;;;;;;11.73;5.28;;;10.60;99.90;;;;;;5157446;27;20039;-75
2022/09/21 00:54:59;;;;;;;11.27;5.40;;;10.50;99.90;;;;;;5165429;27;20066;-75
2022/09/21 00:57:29;;;;;;;10.25;5.15;;;10.50;99.90;;;;;;5127303;27;20035;-75
2022/09/21 01:00:00;;;;;;;10.85;5.30;;;10.40;99.90;;;;;;5159609;27;20043;-75
2022/09/21 01:02:27;;;;;;;10.18;5.45;;;10.30;99.90;;;;;;5149725;27;20187;-75
2022/09/21 01:04:53;;;;;;;12.23;5.15;;;10.30;99.90;;;;;;5157626;27;20113;-75
2022/09/21 01:07:28;;;;;;;12.75;5.35;;;10.20;99.90;;;;;;5135453;27;20046;-75
2022/09/21 01:09:58;;;;;;;12.45;5.43;;;10.20;99.90;;;;;;5158624;27;20086;-75
2022/09/21 01:12:46;;;;;;;8.23;5.18;;;10.20;99.90;;;;;;5169441;27;20062;-75
2022/09/21 01:15:43;;;;;;;9.07;4.97;;;10.10;99.90;;;;;;5142897;27;20095;-75
2022/09/21 01:18:09;;;;;;;9.68;4.90;;;10.10;99.90;;;;;;5124136;27;20047;-75
2022/09/21 01:21:02;;;;;;;11.57;5.40;;;10.00;99.90;;;;;;5143494;27;20463;-75
2022/09/21 01:23:40;;;;;;;8.10;5.15;;;10.00;99.90;;;;;;5117946;27;20043;-75
2022/09/21 01:26:39;;;;;;;10.35;5.20;;;10.10;99.90;;;;;;5141285;27;20447;-75
2022/09/21 01:29:24;;;;;;;13.45;5.20;;;10.00;99.90;;;;;;5176340;27;20053;-75
2022/09/21 01:32:14;;;;;;;10.88;4.70;;;10.00;99.90;;;;;;5158392;27;20049;-75
2022/09/21 01:34:48;;;;;;;9.85;5.10;;;10.00;99.90;;;;;;5144925;27;20187;-75
2022/09/21 01:37:18;;;;;;;10.68;4.93;;;10.00;99.90;;;;;;5137040;27;20046;-75
2022/09/21 01:39:50;;;;;;;7.20;4.57;;;9.90;99.90;;;;;;5174937;27;20391;-74
2022/09/21 01:42:18;;;;;;;10.27;4.95;;;9.80;99.90;;;;;;5152654;27;20487;-75
2022/09/21 01:44:46;;;;;;;11.27;5.13;;;9.80;99.90;;;;;;5135876;27;20046;-74
2022/09/21 01:47:13;;;;;;;10.65;4.55;;;9.80;99.90;;;;;;5150100;27;20055;-74
2022/09/21 01:49:46;;;;;;;9.90;4.65;;;9.80;99.90;;;;;;5167393;27;20038;-74
2022/09/21 01:52:22;;;;;;;10.73;4.60;;;9.80;99.90;;;;;;5167369;27;20088;-74
2022/09/21 01:54:53;;;;;;;8.52;4.70;;;9.80;99.90;;;;;;5165033;27;20126;-75
2022/09/21 01:57:31;;;;;;;11.13;4.38;;;9.80;99.90;;;;;;5170183;27;20550;-75
2022/09/21 01:59:58;;;;;;;9.43;3.90;;;9.80;99.90;;;;;;5177209;27;20573;-75
2022/09/21 02:02:33;;;;;;;11.05;5.05;;;9.80;99.90;;;;;;5154885;27;20042;-75
2022/09/21 02:05:01;;;;;;;11.27;4.97;;;9.80;99.90;;;;;;5160859;27;20125;-75
2022/09/21 02:07:27;;;;;;;11.68;4.43;;;10.50;99.90;;;;;;5174235;27;20117;-74
2022/09/21 02:09:54;;;;;;;8.52;4.13;;;10.70;99.90;;;;;;5140396;27;20373;-75
2022/09/21 02:12:21;;;;;;;9.88;5.18;;;9.70;99.90;;;;;;5171017;27;20042;-76
2022/09/21 02:14:49;;;;;;;9.88;4.97;;;9.70;99.90;;;;;;5137027;27;20039;-75
2022/09/21 02:17:24;;;;;;;10.13;4.50;;;9.60;99.90;;;;;;5165994;27;20042;-75
2022/09/21 02:20:06;;;;;;;9.57;4.03;;;9.70;99.90;;;;;;5158988;27;20054;-75
2022/09/21 02:22:41;;;;;;;9.13;4.55;;;10.30;99.90;;;;;;5146777;27;20066;-75
2022/09/21 02:25:26;;;;;;;8.90;4.73;;;9.70;99.90;;;;;;5144922;27;20083;-75
2022/09/21 02:28:12;;;;;;;9.45;4.10;;;9.70;99.90;;;;;;5156513;27;20339;-75
2022/09/21 02:30:43;;;;;;;10.60;4.57;;;10.70;99.90;;;;;;5137303;27;20051;-75
2022/09/21 02:33:31;;;;;;;11.10;4.35;;;9.70;99.90;;;;;;5138622;27;20038;-75
2022/09/21 02:36:06;;;;;;;12.63;4.15;;;9.70;99.90;;;;;;5174563;27;20047;-75
2022/09/21 02:39:01;;;;;;;11.65;4.55;;;9.70;99.90;;;;;;5166832;27;20095;-75
2022/09/21 02:41:50;;;;;;;10.85;4.15;;;9.70;99.90;;;;;;5126617;27;20038;-75
2022/09/21 02:44:22;;;;;;;9.10;4.25;;;9.60;99.90;;;;;;5176389;27;20049;-75
2022/09/21 02:46:52;;;;;;;9.32;4.40;;;9.60;99.90;;;;;;5157497;27;20057;-75
2022/09/21 02:49:38;;;;;;;6.90;3.97;;;10.10;99.90;;;;;;5156265;27;20424;-75
2022/09/21 02:52:12;;;;;;;12.18;4.30;;;9.70;99.90;;;;;;5157935;27;20114;-75
2022/09/21 02:54:40;;;;;;;10.93;4.10;;;9.80;99.90;;;;;;5154882;27;20545;-75
2022/09/21 02:57:07;;;;;;;8.98;4.80;;;9.70;99.90;;;;;;5162531;27;20085;-75
2022/09/21 02:59:33;;;;;;;7.72;4.28;;;10.10;99.90;;;;;;5137474;27;20042;-75
2022/09/21 03:01:59;;;;;;;9.43;4.63;;;9.80;99.90;;;;;;5172628;27;20086;-75
2022/09/21 03:04:26;;;;;;;10.18;4.43;;;10.10;99.90;;;;;;5157842;27;20065;-75
2022/09/21 03:06:52;;;;;;;10.43;4.53;;;9.70;99.90;;;;;;5156382;27;20038;-75
2022/09/21 03:09:19;;;;;;;9.48;3.92;;;9.70;99.90;;;;;;5159030;27;20032;-75
2022/09/21 03:11:45;;;;;;;15.25;4.10;;;9.70;99.90;;;;;;5148337;27;20424;-75
2022/09/21 03:14:11;;;;;;;7.95;3.85;;;9.70;99.90;;;;;;5153948;27;20047;-75
2022/09/21 03:16:37;;;;;;;9.98;3.78;;;9.70;99.90;;;;;;5154443;27;20046;-75
2022/09/21 03:19:04;;;;;;;9.48;3.95;;;10.10;99.90;;;;;;5154760;27;20053;-75
2022/09/21 03:21:30;;;;;;;13.25;3.90;;;9.80;99.90;;;;;;5135708;27;20048;-74
2022/09/21 03:23:56;;;;;;;10.48;3.60;;;10.30;99.90;;;;;;5154561;27;20121;-75
2022/09/21 03:26:22;;;;;;;11.68;3.22;;;10.50;99.90;;;;;;5118758;27;20084;-75
2022/09/21 03:28:48;;;;;;;8.55;3.90;;;9.80;99.90;;;;;;5135986;27;20047;-75
2022/09/21 03:31:14;;;;;;;14.00;3.83;;;9.90;99.90;;;;;;5140674;27;20074;-75
2022/09/21 03:33:40;;;;;;;10.82;3.47;;;9.80;99.90;;;;;;5135962;27;20131;-75
2022/09/21 03:36:06;;;;;;;9.75;3.58;;;9.90;99.90;;;;;;5135898;27;20146;-75
2022/09/21 03:38:32;;;;;;;14.18;3.88;;;9.80;99.90;;;;;;5153037;27;20046;-75
2022/09/21 03:40:58;;;;;;;9.50;3.72;;;10.70;99.90;;;;;;5154418;27;20043;-75
2022/09/21 03:43:25;;;;;;;9.50;4.03;;;9.80;99.90;;;;;;5153089;27;20081;-75
2022/09/21 03:45:51;;;;;;;12.07;3.38;;;9.80;99.90;;;;;;5154417;27;20038;-75
2022/09/21 03:48:16;;;;;;;7.65;3.50;;;9.80;99.90;;;;;;5135698;27;20047;-75
2022/09/21 03:50:42;;;;;;;7.78;3.17;;;9.90;99.90;;;;;;5152513;27;20143;-75
2022/09/21 03:53:09;;;;;;;7.70;3.20;;;9.80;99.90;;;;;;5155723;27;20042;-75
2022/09/21 03:55:35;;;;;;;10.57;3.50;;;9.80;99.90;;;;;;5160848;27;20043;-75
2022/09/21 03:58:01;;;;;;;12.10;3.70;;;9.70;99.90;;;;;;5161290;27;20091;-75
2022/09/21 04:00:27;;;;;;;9.27;3.40;;;10.70;99.90;;;;;;5160036;27;20034;-75
2022/09/21 04:02:54;;;;;;;9.85;3.53;;;9.80;99.90;;;;;;5158131;27;20054;-75
2022/09/21 04:05:19;;;;;;;7.93;3.45;;;10.20;99.90;;;;;;5140372;27;20091;-75
2022/09/21 04:07:45;;;;;;;7.68;4.18;;;10.10;99.90;;;;;;5135117;27;20042;-75
2022/09/21 04:10:14;;;;;;;10.50;4.18;;;9.70;99.90;;;;;;5159785;27;20183;-75
2022/09/21 04:12:42;;;;;;;7.55;3.72;;;9.70;99.90;;;;;;5159990;27;20447;-75
2022/09/21 04:15:10;;;;;;;9.75;4.13;;;9.60;99.90;;;;;;5161055;27;20091;-75
2022/09/21 04:17:35;;;;;;;8.43;3.83;;;9.60;99.90;;;;;;5161038;27;20078;-75
2022/09/21 04:20:02;;;;;;;8.52;3.75;;;9.50;99.90;;;;;;5162043;27;20075;-75
2022/09/21 04:22:27;;;;;;;10.68;4.03;;;9.50;99.90;;;;;;5162558;27;20043;-75
2022/09/21 04:24:53;;;;;;;7.32;3.55;;;9.40;99.90;;;;;;5162621;27;20038;-75
2022/09/21 04:27:18;;;;;;;9.38;4.43;;;10.00;99.90;;;;;;5171408;27;20121;-76
2022/09/21 04:29:44;;;;;;;11.48;4.20;;;9.30;99.90;;;;;;5131844;27;20042;-75
2022/09/21 04:32:10;;;;;;;9.25;4.10;;;9.30;99.90;;;;;;5179694;27;20049;-76
2022/09/21 04:34:38;;;;;;;8.20;4.20;;;10.50;99.90;;;;;;5144825;27;20046;-75
2022/09/21 04:37:04;;;;;;;10.48;4.45;;;9.30;99.90;;;;;;5178698;27;20041;-75
2022/09/21 04:39:30;;;;;;;11.82;4.43;;;9.30;99.90;;;;;;5156785;27;20046;-76
2022/09/21 04:41:55;;;;;;;10.80;4.22;;;9.20;99.90;;;;;;5133868;27;20042;-76
2022/09/21 04:44:22;;;;;;;11.75;4.18;;;9.20;99.90;;;;;;5174245;27;20066;-75
2022/09/21 04:46:48;;;;;;;8.02;4.43;;;9.20;99.90;;;;;;5170892;27;20509;-75
2022/09/21 04:49:13;;;;;;;8.27;4.50;;;9.20;99.90;;;;;;5177810;27;20393;-75
2022/09/21 04:51:39;;;;;;;9.00;4.63;;;9.10;99.90;;;;;;5167072;27;20046;-76
2022/09/21 04:54:05;;;;;;;10.68;4.05;;;9.20;99.90;;;;;;5127665;27;20070;-75
2022/09/21 04:56:31;;;;;;;8.00;4.60;;;9.10;99.90;;;;;;5147118;27;20034;-76
2022/09/21 04:58:56;;;;;;;7.20;4.00;;;9.10;99.90;;;;;;5178840;27;20042;-76
2022/09/21 05:01:22;;;;;;;10.88;4.85;;;9.10;99.90;;;;;;5168987;27;20038;-76
2022/09/21 05:03:48;;;;;;;8.05;4.10;;;9.00;99.90;;;;;;5166650;27;20038;-75
2022/09/21 05:06:16;;;;;;;9.23;4.22;;;9.10;99.90;;;;;;5164520;27;20391;-76
2022/09/21 05:11:25;;;;;;;9.07;4.30;;;9.20;99.90;;;;;;5159878;27;20031;-75
2022/09/21 05:13:51;;;;;;;11.02;4.18;;;10.20;99.90;;;;;;5172101;27;20066;-76
2022/09/21 05:16:18;;;;;;;9.30;4.07;;;9.10;99.90;;;;;;5146207;27;20031;-75
2022/09/21 05:18:45;;;;;;;9.32;4.28;;;9.00;99.90;;;;;;5156773;27;20410;-75
2022/09/21 05:21:12;;;;;;;8.68;4.32;;;9.90;99.90;;;;;;5137761;27;20054;-75
2022/09/21 05:23:38;;;;;;;9.23;4.35;;;10.00;99.90;;;;;;5156909;27;20095;-75
2022/09/21 05:26:04;;;;;;;10.88;4.32;;;9.00;99.90;;;;;;5138647;27;20440;-75
2022/09/21 05:28:30;;;;;;;8.02;4.47;;;9.00;99.90;;;;;;5156790;27;20042;-76
2022/09/21 05:31:17;;;;;;;12.75;5.00;;;9.00;99.90;;;;;;5143628;27;20035;-75
2022/09/21 05:33:57;;;;;;;12.90;4.35;;;9.00;99.90;;;;;;5149986;27;20062;-75
2022/09/21 05:36:42;;;;;;;10.38;4.20;;;9.00;99.90;;;;;;5137669;27;20055;-76
2022/09/21 05:39:08;;;;;;;9.55;4.43;;;9.00;99.90;;;;;;5138374;27;20118;-76
2022/09/21 05:41:34;;;;;;;10.65;4.28;;;9.00;99.90;;;;;;5155967;27;20604;-75
2022/09/21 05:44:00;;;;;;;11.68;4.50;;;9.10;99.90;;;;;;5159224;27;20396;-76
2022/09/21 05:46:33;;;;;;;11.68;4.20;;;9.10;99.90;;;;;;5176687;27;20039;-76
2022/09/21 05:49:06;;;;;;;11.30;4.25;;;9.10;99.90;;;;;;5177060;27;20513;-76
2022/09/21 05:51:42;;;;;;;11.13;4.57;;;9.10;99.90;;;;;;5176211;27;20038;-76
2022/09/21 05:54:08;;;;;;;11.48;4.22;;;9.20;99.90;;;;;;5174876;27;20041;-76
2022/09/21 05:56:48;;;;;;;13.32;4.45;;;9.20;99.90;;;;;;5176142;27;20444;-76
2022/09/21 05:59:48;;;;;;;10.43;4.40;;;9.20;99.90;;;;;;5176489;27;20057;-76
2022/09/21 06:02:49;;;;;;;11.07;4.60;;;9.30;99.90;;;;;;5150147;27;20039;-75
2022/09/21 06:05:16;;;;;;;10.23;4.45;;;9.40;99.90;;;;;;5151870;27;20046;-75
2022/09/21 06:07:42;;;;;;;10.18;5.13;;;9.40;99.90;;;;;;5151212;27;20118;-75
2022/09/21 06:10:09;;;;;;;9.57;4.65;;;9.50;99.90;;;;;;5171513;27;20050;-75
2022/09/21 06:12:35;;;;;;;10.27;4.95;;;9.50;99.90;;;;;;5136665;27;20095;-75
2022/09/21 06:15:05;;;;;;;11.98;5.40;;;9.50;99.90;;;;;;5155304;27;20046;-75
2022/09/21 06:17:32;;;;;;;12.18;5.00;;;9.50;99.90;;;;;;5154852;27;20043;-75
2022/09/21 06:19:58;;;;;;;11.43;5.05;;;9.60;99.90;;;;;;5155393;27;20078;-75
2022/09/21 06:22:24;;;;;;;9.27;4.45;;;9.60;99.90;;;;;;5154961;27;20181;-76
2022/09/21 06:24:49;;;;;;;10.23;4.47;;;10.70;99.90;;;;;;5175210;27;20395;-75
2022/09/21 06:27:15;;;;;;;12.77;4.68;;;10.60;99.90;;;;;;5155376;27;20172;-75
2022/09/21 06:29:40;;;;;;;12.45;4.40;;;9.70;99.90;;;;;;5147845;27;20132;-76
2022/09/21 06:32:06;;;;;;;14.05;4.95;;;9.80;99.90;;;;;;5155486;27;20046;-76
2022/09/21 06:34:32;;;;;;;13.68;5.05;;;9.90;99.90;;;;;;5175332;27;20479;-76
2022/09/21 06:36:57;;;;;;;13.25;4.93;;;10.00;99.90;;;;;;5156638;27;20110;-76
2022/09/21 06:39:23;;;;;;;12.30;4.53;;;10.20;99.90;;;;;;5175966;27;20045;-76
2022/09/21 06:41:50;;;;;;;7.45;4.00;;;10.60;99.90;;;;;;5156535;27;20129;-76
2022/09/21 06:44:16;;;;;;;9.20;3.88;;;11.30;99.90;;;;;;5155874;27;20056;-77
2022/09/21 06:46:41;;;;;;;9.50;3.67;;;12.50;99.90;;;;;;5156663;27;20030;-76
2022/09/21 06:49:07;;;;;;;10.43;3.50;;;14.40;99.90;;;;;;5157125;27;20428;-76
2022/09/21 06:51:33;;;;;;;9.82;3.17;;;16.70;99.90;;;;;;5153066;27;20034;-76
2022/09/21 06:53:58;;;;;;;9.38;3.10;;;18.20;99.90;;;;;;5166421;27;20066;-77
2022/09/21 06:56:25;;;;;;;8.05;2.90;;;20.40;99.90;;;;;;5152749;27;20447;-77
2022/09/21 06:58:51;;;;;;;5.80;2.45;;;21.80;99.90;;;;;;5175222;27;20049;-77
2022/09/21 07:01:18;;;;;;;11.80;3.13;;;23.00;99.90;;;;;;5149482;27;20399;-77
2022/09/21 07:03:47;;;;;;;7.68;3.10;;;23.90;99.90;;;;;;5155552;27;20042;-77
2022/09/21 07:06:14;;;;;;;5.63;2.53;;;24.50;99.90;;;;;;5152355;27;20049;-77
2022/09/21 07:08:43;;;;;;;7.40;2.67;;;24.40;99.90;;;;;;5134776;27;20527;-77
2022/09/21 07:11:10;;;;;;;9.13;2.72;;;23.90;99.90;;;;;;5161637;27;20035;-77
2022/09/21 07:13:38;;;;;;;7.40;2.75;;;23.00;99.90;;;;;;5142214;27;20464;-77
2022/09/21 07:16:05;;;;;;;8.85;2.88;;;22.00;99.90;;;;;;5135545;27;20043;-78
2022/09/21 07:18:33;;;;;;;10.93;2.92;;;21.10;99.90;;;;;;5154851;27;20049;-79
2022/09/21 07:21:05;;;;;;;10.77;3.20;;;20.50;99.90;;;;;;5153971;27;20046;-76
2022/09/21 07:23:31;;;;;;;8.63;2.92;;;19.80;99.90;;;;;;5153645;27;20049;-78
2022/09/21 07:26:02;;;;;;;11.93;3.00;;;19.20;99.90;;;;;;5156227;27;20042;-77
2022/09/21 07:28:28;;;;;;;8.27;2.95;;;18.70;99.90;;;;;;5133913;27;20078;-75
2022/09/21 07:30:54;;;;;;;6.82;2.92;;;18.20;99.90;;;;;;5141221;27;20495;-77
2022/09/21 07:33:20;;;;;;;9.00;3.40;;;17.90;99.90;;;;;;5125353;27;20098;-77
2022/09/21 07:35:57;;;;;;;11.45;3.40;;;17.70;99.90;;;;;;5120765;27;20053;-77
2022/09/21 07:38:23;;;;;;;10.90;3.50;;;17.80;99.90;;;;;;5134821;27;20043;-76
2022/09/21 07:40:49;;;;;;;10.13;3.25;;;17.40;99.90;;;;;;5134363;27;20428;-77
2022/09/21 07:43:16;;;;;;;9.32;3.55;;;17.30;99.90;;;;;;5153662;27;20042;-78
2022/09/21 07:45:42;;;;;;;10.45;3.30;;;17.20;99.90;;;;;;5148599;27;20039;-78
2022/09/21 07:48:08;;;;;;;8.68;2.90;;;17.10;99.90;;;;;;5117410;27;20463;-78
2022/09/21 07:50:34;;;;;;;8.50;2.80;;;17.00;99.90;;;;;;5133573;27;20074;-77
2022/09/21 07:53:01;;;;;;;9.88;3.30;;;16.80;99.90;;;;;;5153675;27;20038;-78
2022/09/21 07:55:27;;;;;;;8.63;3.25;;;16.90;99.90;;;;;;5117162;27;20038;-77
2022/09/21 08:00:37;;;;;;;8.30;2.85;;;16.70;99.90;;;;;;5153464;27;20531;-78
2022/09/21 08:03:04;;;;;;;9.15;3.42;;;16.80;99.90;;;;;;5168887;27;20118;-79
2022/09/21 08:05:31;;;;;;;11.25;3.50;;;17.40;99.90;;;;;;5161373;27;20470;-79
2022/09/21 08:07:57;;;;;;;7.57;2.90;;;17.00;99.90;;;;;;5145607;27;20380;-77
2022/09/21 08:10:27;;;;;;;10.15;3.03;;;17.20;99.90;;;;;;5133932;27;20061;-77
2022/09/21 08:12:53;;;;;;;11.75;3.38;;;17.60;99.90;;;;;;5154929;27;20034;-78
2022/09/21 08:15:18;;;;;;;7.18;2.47;;;17.50;99.90;;;;;;5133771;27;20038;-78
2022/09/21 08:17:44;;;;;;;9.68;2.25;;;17.60;99.90;;;;;;5153618;27;20111;-77
2022/09/21 08:20:10;;;;;;;10.10;2.55;;;18.00;99.90;;;;;;5159665;27;20068;-77
2022/09/21 08:22:35;;;;;;;9.40;2.30;;;17.80;99.90;;;;;;5151258;27;20066;-78
2022/09/21 08:25:01;;;;;;;8.23;2.20;;;18.00;99.90;;;;;;5154434;27;20047;-77
2022/09/21 08:27:27;;;;;;;10.73;2.45;;;18.10;99.90;;;;;;5159916;27;20031;-79
2022/09/21 08:29:53;;;;;;;9.82;2.13;;;18.20;99.90;;;;;;5141257;27;20141;-77
2022/09/21 08:32:19;;;;;;;10.32;2.85;;;18.40;99.90;;;;;;5113267;27;20212;-78
2022/09/21 08:34:44;;;;;;;8.55;2.30;;;18.50;99.90;;;;;;5131725;27;20447;-77
2022/09/21 08:37:10;;;;;;;8.02;2.10;;;18.70;99.90;;;;;;5149273;27;20454;-77
2022/09/21 08:39:36;;;;;;;10.20;2.35;;;18.80;99.90;;;;;;5164087;27;20506;-78
2022/09/21 08:42:19;;;;;;;7.68;2.33;;;19.00;99.90;;;;;;5149746;27;20046;-78
2022/09/21 08:44:52;;;;;;;12.63;2.55;;;19.20;99.90;;;;;;5149677;27;20070;-78
2022/09/21 08:47:54;;;;;;;10.55;2.63;;;19.40;99.90;;;;;;5157194;27;20049;-76
2022/09/21 08:50:38;;;;;;;8.60;2.33;;;19.70;99.90;;;;;;5131824;27;20090;-78
2022/09/21 08:53:10;;;;;;;11.38;2.28;;;19.90;99.90;;;;;;5148708;27;20067;-78
2022/09/21 08:55:35;;;;;;;9.68;2.33;;;20.00;99.90;;;;;;5135537;27;20039;-78
2022/09/21 08:58:01;;;;;;;7.72;2.65;;;20.20;99.90;;;;;;5118192;27;20051;-78
2022/09/21 09:00:33;;;;;;;8.20;2.10;;;20.30;99.90;;;;;;5166518;27;20030;-78
2022/09/21 09:03:25;;;;;;;8.63;2.20;;;20.30;99.90;;;;;;5138635;27;20432;-79
2022/09/21 09:06:02;;;;;;;7.13;2.20;;;20.50;99.90;;;;;;5149195;27;20037;-78
2022/09/21 09:08:43;;;;;;;6.13;2.00;;;20.60;99.90;;;;;;5173136;27;20459;-77
2022/09/21 09:11:27;;;;;;;13.18;2.30;;;20.80;99.90;;;;;;5177475;27;20432;-73
2022/09/21 09:14:12;;;;;;;8.20;1.85;;;21.10;99.90;;;;;;5168652;27;20035;-74
2022/09/21 09:17:00;;;;;;;7.00;2.00;;;21.20;99.90;;;;;;5135625;27;20042;-73
2022/09/21 09:19:50;;;;;;;7.75;1.90;;;21.20;99.90;;;;;;5155492;27;20515;-73
2022/09/21 09:22:24;;;;;;;6.20;1.40;;;21.20;99.90;;;;;;5150738;27;20077;-73
2022/09/21 09:24:51;;;;;;;6.55;1.60;;;21.20;99.30;;;;;;5157383;27;20089;-72
2022/09/21 09:27:22;;;;;;;7.40;1.70;;;21.20;99.10;;;;;;5156925;27;20038;-72
2022/09/21 09:30:12;;;;;;;5.10;1.83;;;21.20;99.10;;;;;;5162140;27;20047;-72
2022/09/21 09:33:06;;;;;;;6.43;1.50;;;21.40;97.80;;;;;;5135191;27;20047;-72
2022/09/21 09:35:41;;;;;;;6.22;1.90;;;21.50;97.80;;;;;;5134738;27;20043;-72
2022/09/21 09:38:25;;;;;;;7.07;1.70;;;21.80;97.60;;;;;;5116861;27;20051;-73
2022/09/21 09:40:57;;;;;;;5.35;1.45;;;21.80;97.70;;;;;;5135247;27;20083;-72
2022/09/21 09:43:26;;;;;;;5.20;1.48;;;21.50;97.70;;;;;;5135967;27;20100;-73
2022/09/21 09:46:12;;;;;;;6.43;1.30;;;21.30;97.70;;;;;;5148225;27;20047;-72
2022/09/21 09:48:44;;;;;;;7.25;1.77;;;21.30;97.60;;;;;;5135465;27;20092;-73
2022/09/21 09:51:12;;;;;;;5.53;1.75;;;21.40;97.10;;;;;;5160835;27;20050;-74
2022/09/21 09:53:39;;;;;;;6.50;1.73;;;21.30;97.20;;;;;;5136743;27;20479;-73
2022/09/21 09:56:05;;;;;;;6.45;1.90;;;21.10;97.50;;;;;;5156327;27;20046;-73
2022/09/21 09:58:49;;;;;;;5.63;1.40;;;21.00;97.20;;;;;;5152073;27;20045;-72
2022/09/21 10:01:48;;;;;;;5.78;1.63;;;21.30;97.30;;;;;;5176480;27;20042;-74
2022/09/21 10:04:19;;;;;;;4.22;1.35;;;21.90;96.50;;;;;;5147515;27;20051;-73
2022/09/21 10:06:44;;;;;;;6.15;1.30;;;22.40;95.80;;;;;;5152604;27;20042;-72
2022/09/21 10:09:28;;;;;;;5.95;1.48;;;22.50;95.10;;;;;;5174487;27;20336;-72
2022/09/21 10:12:01;;;;;;;6.53;1.45;;;22.10;95.30;;;;;;5175300;27;20045;-71
2022/09/21 10:14:33;;;;;;;4.85;1.38;;;21.70;95.60;;;;;;5174054;27;20045;-71
2022/09/21 10:17:05;;;;;;;8.38;1.40;;;21.50;95.80;;;;;;5152929;27;20554;-73
2022/09/21 10:19:31;;;;;;;6.70;1.60;;;21.40;96.30;;;;;;5132913;27;20037;-72
2022/09/21 10:21:58;;;;;;;8.48;1.30;;;21.60;96.80;;;;;;5174882;27;20050;-74
2022/09/21 10:24:36;;;;;;;4.63;1.33;;;22.10;96.10;;;;;;5157256;27;20042;-75
2022/09/21 10:27:06;;;;;;;3.70;1.23;;;22.60;94.80;;;;;;5174175;27;20394;-73
2022/09/21 10:29:39;;;;;;;4.68;1.20;;;22.80;95.50;;;;;;5174407;27;20038;-73
2022/09/21 10:32:11;;;;;;;4.47;1.40;;;23.20;95.30;;;;;;5153730;27;20078;-73
2022/09/21 10:34:38;;;;;;;3.90;1.30;;;23.50;93.70;;;;;;5175927;27;20057;-72
2022/09/21 10:37:27;;;;;;;6.28;1.40;;;23.60;93.20;;;;;;5174957;27;20056;-72
2022/09/21 10:39:52;;;;;;;5.78;1.60;;;23.60;93.10;;;;;;5150796;27;20048;-71
2022/09/21 10:42:19;;;;;;;6.78;1.58;;;23.30;93.10;;;;;;5152668;27;20478;-75
2022/09/21 10:44:49;;;;;;;4.40;1.23;;;22.90;93.10;;;;;;5154276;27;20372;-75
2022/09/21 10:47:39;;;;;;;5.75;1.50;;;22.40;93.20;;;;;;5170535;27;20126;-75
2022/09/21 10:50:27;;;;;;;5.25;1.35;;;22.20;93.20;;;;;;5123288;27;20125;-75
2022/09/21 10:53:29;;;;;;;5.63;1.38;;;22.00;93.20;;;;;;5151386;27;20039;-75
2022/09/21 10:55:58;;;;;;;5.65;1.40;;;21.60;93.70;;;;;;5153358;27;20057;-76
2022/09/21 10:58:24;;;;;;;5.85;1.70;;;21.30;93.70;;;;;;5151021;27;20059;-75
2022/09/21 11:00:52;;;;;;;4.40;1.30;;;21.10;93.70;;;;;;5150991;27;20049;-75
2022/09/21 11:03:29;;;;;;;4.90;1.45;;;20.90;93.70;;;;;;5144219;27;20146;-75
2022/09/21 11:06:03;;;;;;;8.57;1.60;;;20.70;94.10;;;;;;5112228;27;20047;-75
2022/09/21 11:08:44;;;;;;;3.58;1.27;;;20.80;94.00;;;;;;5128904;27;20431;-75
2022/09/21 11:11:22;;;;;;;4.70;1.30;;;21.20;94.00;;;;;;5132508;27;20049;-71
2022/09/21 11:14:22;;;;;;;6.60;1.60;;;21.30;93.30;;;;;;5158236;27;20042;-72
2022/09/21 11:17:06;;;;;;;3.83;1.48;;;21.10;93.70;;;;;;5162534;27;20042;-76
2022/09/21 11:19:50;;;;;;;9.38;1.60;;;21.00;94.00;;;;;;5159723;27;20043;-71
2022/09/21 11:22:33;;;;;;;4.75;1.20;;;20.70;93.80;;;;;;5153788;27;20398;-71
2022/09/21 11:25:06;;;;;;;5.97;1.70;;;20.60;94.10;;;;;;5135345;27;20047;-71
2022/09/21 11:27:43;;;;;;;5.18;1.30;;;20.70;94.40;;;;;;5154037;27;20463;-71
2022/09/21 11:30:13;;;;;;;3.22;1.10;;;21.10;94.10;;;;;;5135143;27;20112;-71
2022/09/21 11:33:06;;;;;;;4.63;1.38;;;21.60;93.30;;;;;;5153999;27;20053;-70
2022/09/21 11:35:57;;;;;;;6.05;1.40;;;21.90;92.80;;;;;;5153596;27;20054;-70
2022/09/21 11:38:54;;;;;;;4.13;1.30;;;22.40;92.70;;;;;;5134863;27;20130;-70
2022/09/21 11:41:29;;;;;;;6.18;1.40;;;22.80;92.60;;;;;;5134702;27;20110;-73
2022/09/21 11:44:12;;;;;;;10.05;1.58;;;23.00;91.50;;;;;;5153526;27;20405;-70
2022/09/21 11:46:50;;;;;;;6.53;1.30;;;22.80;91.60;;;;;;5135041;27;20098;-71
2022/09/21 11:49:48;;;;;;;6.30;1.38;;;22.40;92.20;;;;;;5153985;27;20046;-71
2022/09/21 11:52:33;;;;;;;4.82;1.45;;;22.30;92.30;;;;;;5148334;27;20134;-70
2022/09/21 11:55:13;;;;;;;6.03;1.30;;;22.60;92.50;;;;;;5133337;28;20082;-70
2022/09/21 11:57:49;;;;;;;4.47;1.20;;;23.00;92.60;;;;;;5133017;28;20407;-71
2022/09/21 12:00:18;;;;;;;5.20;1.35;;;23.30;92.20;;;;;;5133132;28;20043;-71
2022/09/21 12:03:11;;;;;;;7.43;1.73;;;23.70;91.30;;;;;;5130857;28;20352;-71
2022/09/21 12:06:02;;;;;;;4.30;1.30;;;24.00;91.10;;;;;;5132131;28;20043;-71
2022/09/21 12:08:57;;;;;;;6.03;1.55;;;24.50;91.60;;;;;;5114573;28;20079;-71
2022/09/21 12:12:08;;;;;;;7.27;1.73;;;25.00;91.60;;;;;;5160115;27;20042;-70
2022/09/21 12:14:55;;;;;;;3.20;1.33;;;25.60;89.90;;;;;;5176419;27;20061;-70
2022/09/21 12:17:32;;;;;;;4.18;1.30;;;25.90;86.80;;;;;;5178441;27;20046;-70
2022/09/21 12:20:11;;;;;;;6.13;1.80;;;25.70;86.80;;;;;;5158439;27;20493;-70
2022/09/21 12:22:44;;;;;;;3.80;1.30;;;25.80;86.80;;;;;;5159708;27;20510;-71
2022/09/21 12:25:22;;;;;;;5.05;1.50;;;25.80;84.50;;;;;;5142421;27;20058;-70
2022/09/21 12:27:52;;;;;;;4.30;1.30;;;25.50;85.30;;;;;;5178736;27;20061;-73
2022/09/21 12:30:20;;;;;;;4.82;1.48;;;25.30;85.20;;;;;;5145078;27;20139;-72
2022/09/21 12:33:05;;;;;;;6.78;1.58;;;25.30;85.00;;;;;;5151999;27;20039;-70
2022/09/21 12:35:43;;;;;;;5.70;1.30;;;25.20;84.10;;;;;;5117770;27;20241;-70
2022/09/21 12:38:12;;;;;;;10.15;1.60;;;25.00;84.40;;;;;;5136746;27;20444;-70
2022/09/21 12:40:46;;;;;;;3.80;1.30;;;25.00;85.70;;;;;;5161000;27;20045;-70
2022/09/21 12:43:31;;;;;;;4.65;1.58;;;25.00;85.70;;;;;;5149266;27;20427;-71
2022/09/21 12:46:02;;;;;;;4.35;1.45;;;25.10;85.20;;;;;;5148792;27;20046;-72
2022/09/21 12:48:31;;;;;;;4.13;1.20;;;25.10;85.40;;;;;;5118121;27;20146;-75
2022/09/21 12:51:21;;;;;;;4.95;1.50;;;25.10;84.20;;;;;;5135988;27;20403;-75
2022/09/21 12:53:49;;;;;;;5.43;1.50;;;24.90;84.70;;;;;;5135318;27;20042;-75
2022/09/21 12:56:42;;;;;;;6.82;1.73;;;24.70;84.40;;;;;;5117632;27;20047;-75
2022/09/21 12:59:15;;;;;;;7.38;2.28;;;24.80;85.20;;;;;;5136338;27;20043;-75
2022/09/21 13:01:44;;;;;;;5.35;1.52;;;24.60;85.50;;;;;;5117616;27;20433;-75
2022/09/21 13:04:33;;;;;;;6.10;1.88;;;24.70;85.20;;;;;;5149863;27;20046;-75
2022/09/21 13:07:31;;;;;;;8.13;3.03;;;24.70;85.10;;;;;;5157836;27;20045;-75
2022/09/21 13:10:06;;;;;;;6.22;1.85;;;24.70;84.80;;;;;;5147005;27;20068;-76
2022/09/21 13:12:39;;;;;;;6.97;1.63;;;24.70;85.30;;;;;;5157880;27;20039;-73
2022/09/21 13:15:23;;;;;;;4.85;1.55;;;24.70;84.50;;;;;;5151700;27;20061;-74
2022/09/21 13:18:01;;;;;;;5.78;2.17;;;24.60;84.90;;;;;;5151296;27;20502;-73